Time;durP1;ratioP1;P1;durP2;ratioP2;P2;SDS_P1;SDS_P2;PMS_P1;PMS_P2;Temp;Humidity;BMP_temperature;BMP_pressure;BME280_temperature;BME280_humidity;BME280_pressure;Samples;Min_cycle;Max_cycle;Signal;HPM_P1;HPM_P2
2022/08/21 00:01:25;;;;;;;4.33;2.70;;;23.70;84.60;;;;;;5055302;28;20191;-88
2022/08/21 00:03:51;;;;;;;7.97;3.27;;;23.80;83.70;;;;;;5055766;28;20570;-89
2022/08/21 00:06:16;;;;;;;6.90;3.20;;;23.90;83.50;;;;;;5055234;28;20663;-88
2022/08/21 00:08:42;;;;;;;7.50;3.23;;;23.80;83.80;;;;;;5056231;28;20358;-88
2022/08/21 00:11:09;;;;;;;3.47;2.83;;;23.80;84.30;;;;;;5055672;28;20295;-88
2022/08/21 00:13:35;;;;;;;3.40;2.80;;;23.70;84.60;;;;;;5055463;28;20184;-88
2022/08/21 00:16:02;;;;;;;7.23;3.20;;;23.80;84.30;;;;;;5054850;28;20332;-88
2022/08/21 00:18:28;;;;;;;7.00;3.10;;;23.80;84.20;;;;;;5053268;28;20575;-88
2022/08/21 00:20:54;;;;;;;5.97;3.00;;;23.70;84.40;;;;;;5054898;28;20453;-88
2022/08/21 00:23:20;;;;;;;4.00;3.13;;;23.70;84.30;;;;;;5054787;28;20207;-88
2022/08/21 00:25:46;;;;;;;5.60;3.10;;;23.70;84.40;;;;;;5073910;28;20266;-88
2022/08/21 00:28:13;;;;;;;6.67;3.53;;;23.60;84.70;;;;;;5056975;28;20269;-88
2022/08/21 00:30:40;;;;;;;4.70;3.10;;;23.60;85.10;;;;;;5055521;28;20450;-88
2022/08/21 00:33:08;;;;;;;4.03;2.50;;;23.50;85.20;;;;;;5053717;28;20174;-89
2022/08/21 00:35:36;;;;;;;4.53;2.93;;;23.60;84.60;;;;;;5052797;28;20381;-88
2022/08/21 00:38:04;;;;;;;6.60;3.43;;;23.70;84.10;;;;;;5054256;28;20186;-89
2022/08/21 00:40:39;;;;;;;7.67;3.33;;;23.70;83.70;;;;;;5054618;28;20211;-88
2022/08/21 00:43:09;;;;;;;4.83;2.87;;;23.60;84.20;;;;;;5054278;28;20175;-88
2022/08/21 00:45:35;;;;;;;4.03;2.50;;;23.60;84.20;;;;;;5055626;28;20185;-89
2022/08/21 00:48:02;;;;;;;3.73;2.77;;;23.70;83.80;;;;;;5058121;28;20298;-89
2022/08/21 00:50:31;;;;;;;4.30;2.97;;;23.80;83.40;;;;;;5057461;28;20182;-89
2022/08/21 00:52:59;;;;;;;4.17;2.70;;;23.80;82.90;;;;;;5074195;28;20314;-89
2022/08/21 00:55:26;;;;;;;6.20;3.30;;;23.90;82.60;;;;;;5056773;28;20422;-89
2022/08/21 00:57:55;;;;;;;4.73;2.97;;;23.90;82.80;;;;;;5073542;28;20199;-88
2022/08/21 01:00:29;;;;;;;4.30;2.60;;;23.80;82.60;;;;;;5071243;28;20263;-89
2022/08/21 01:02:56;;;;;;;3.57;2.63;;;23.80;82.40;;;;;;5072875;28;20168;-89
2022/08/21 01:05:22;;;;;;;5.77;3.13;;;23.90;82.40;;;;;;5054345;28;20191;-89
2022/08/21 01:07:48;;;;;;;2.80;2.50;;;23.80;82.70;;;;;;5071732;28;20222;-89
2022/08/21 01:10:14;;;;;;;3.30;2.43;;;23.80;82.70;;;;;;5053611;28;20164;-88
2022/08/21 01:12:41;;;;;;;4.03;2.63;;;23.90;82.70;;;;;;5053164;28;20266;-88
2022/08/21 01:15:07;;;;;;;3.43;2.40;;;23.80;82.50;;;;;;5054709;28;20553;-88
2022/08/21 01:17:33;;;;;;;3.25;2.30;;;23.90;82.40;;;;;;5055031;28;20214;-89
2022/08/21 01:20:01;;;;;;;3.37;2.60;;;23.90;82.20;;;;;;5054758;28;20230;-88
2022/08/21 01:22:27;;;;;;;4.83;2.77;;;23.90;82.20;;;;;;5056616;28;20190;-88
2022/08/21 01:24:53;;;;;;;5.30;2.77;;;23.90;82.40;;;;;;5056955;28;20237;-88
2022/08/21 01:27:19;;;;;;;5.03;2.83;;;23.80;83.20;;;;;;5055510;28;20535;-88
2022/08/21 01:29:54;;;;;;;4.23;2.70;;;23.70;83.80;;;;;;5054484;28;20183;-88
2022/08/21 01:32:20;;;;;;;3.57;2.67;;;23.70;84.00;;;;;;5073291;28;20418;-88
2022/08/21 01:34:49;;;;;;;4.03;2.50;;;23.70;83.90;;;;;;5055440;28;20171;-88
2022/08/21 01:37:16;;;;;;;5.80;2.60;;;23.70;83.50;;;;;;5072530;28;20435;-88
2022/08/21 01:39:44;;;;;;;2.67;2.30;;;23.80;83.30;;;;;;5072703;28;20185;-89
2022/08/21 01:42:09;;;;;;;3.73;2.30;;;23.80;83.00;;;;;;5056326;28;20173;-89
2022/08/21 01:44:35;;;;;;;4.57;3.00;;;23.80;82.80;;;;;;5075452;28;20179;-88
2022/08/21 01:47:04;;;;;;;4.07;2.50;;;23.80;82.70;;;;;;5058683;28;20196;-88
2022/08/21 01:49:30;;;;;;;4.03;2.40;;;23.80;82.70;;;;;;5058455;28;20168;-88
2022/08/21 01:51:57;;;;;;;3.00;2.20;;;23.80;82.50;;;;;;5058510;28;20229;-88
2022/08/21 01:54:25;;;;;;;3.03;2.50;;;23.80;82.50;;;;;;5059760;28;20574;-88
2022/08/21 01:56:53;;;;;;;5.93;2.60;;;23.80;82.50;;;;;;5076318;28;20420;-88
2022/08/21 01:59:21;;;;;;;8.70;2.60;;;23.80;82.70;;;;;;5058894;28;20562;-88
2022/08/21 02:01:47;;;;;;;4.27;2.23;;;23.70;84.00;;;;;;5059357;28;20172;-89
2022/08/21 02:04:12;;;;;;;3.50;2.30;;;23.70;83.50;;;;;;5057992;28;20475;-88
2022/08/21 02:06:38;;;;;;;4.77;2.77;;;23.70;83.30;;;;;;5059459;28;20241;-88
2022/08/21 02:09:06;;;;;;;5.67;2.77;;;23.70;83.80;;;;;;5059587;28;20175;-88
2022/08/21 02:11:33;;;;;;;4.10;2.60;;;23.60;83.70;;;;;;5059021;28;20206;-88
2022/08/21 02:13:59;;;;;;;3.90;2.80;;;23.70;83.60;;;;;;5058161;28;20509;-88
2022/08/21 02:16:25;;;;;;;3.77;2.27;;;23.70;83.50;;;;;;5058853;28;20179;-88
2022/08/21 02:18:51;;;;;;;4.33;2.67;;;23.70;83.30;;;;;;5058100;28;20459;-88
2022/08/21 02:21:17;;;;;;;4.30;2.57;;;23.70;83.10;;;;;;5058934;28;20191;-88
2022/08/21 02:23:43;;;;;;;4.67;2.83;;;23.60;83.80;;;;;;5077111;28;20459;-88
2022/08/21 02:26:09;;;;;;;5.77;2.90;;;23.60;84.20;;;;;;5058281;28;20179;-88
2022/08/21 02:28:36;;;;;;;5.00;2.80;;;23.50;84.60;;;;;;5057471;28;20262;-88
2022/08/21 02:31:03;;;;;;;3.30;2.30;;;23.40;85.60;;;;;;5058875;28;20272;-88
2022/08/21 02:33:28;;;;;;;3.77;2.30;;;23.30;85.60;;;;;;5059353;28;20186;-88
2022/08/21 02:35:56;;;;;;;2.70;2.43;;;23.40;85.20;;;;;;5058699;28;20176;-88
2022/08/21 02:38:29;;;;;;;6.17;2.33;;;23.40;85.00;;;;;;5059353;28;20477;-88
2022/08/21 02:40:57;;;;;;;3.93;2.47;;;23.50;84.70;;;;;;5060557;28;20246;-88
2022/08/21 02:43:25;;;;;;;5.33;2.37;;;23.40;84.60;;;;;;5060091;28;20193;-88
2022/08/21 02:45:52;;;;;;;2.83;2.17;;;23.40;84.60;;;;;;5059961;28;20300;-88
2022/08/21 02:48:22;;;;;;;3.97;2.30;;;23.50;84.40;;;;;;5060374;28;20225;-88
2022/08/21 02:50:53;;;;;;;4.77;2.43;;;23.50;84.10;;;;;;5059020;28;20253;-88
2022/08/21 02:53:19;;;;;;;5.60;2.50;;;23.50;83.80;;;;;;5058261;28;20179;-88
2022/08/21 02:55:47;;;;;;;4.33;2.60;;;23.50;83.70;;;;;;5057987;28;20256;-88
2022/08/21 02:58:15;;;;;;;3.60;2.27;;;23.50;83.60;;;;;;5059236;28;20181;-88
2022/08/21 03:00:43;;;;;;;4.80;2.33;;;23.50;83.60;;;;;;5059453;28;20180;-88
2022/08/21 03:03:09;;;;;;;3.73;2.67;;;23.50;83.50;;;;;;5059158;28;20179;-89
2022/08/21 03:05:37;;;;;;;3.77;2.40;;;23.50;83.60;;;;;;5058768;28;20194;-88
2022/08/21 03:08:09;;;;;;;3.80;2.53;;;23.50;83.60;;;;;;5059476;28;20464;-88
2022/08/21 03:10:36;;;;;;;4.57;2.50;;;23.50;83.50;;;;;;5058579;28;20204;-88
2022/08/21 03:13:03;;;;;;;7.10;2.47;;;23.50;83.60;;;;;;5057599;28;20476;-88
2022/08/21 03:15:29;;;;;;;3.97;2.50;;;23.40;83.60;;;;;;5058740;28;20174;-88
2022/08/21 03:17:55;;;;;;;4.10;2.80;;;23.40;83.70;;;;;;5076077;28;20174;-88
2022/08/21 03:20:25;;;;;;;3.60;2.50;;;23.40;83.90;;;;;;5059045;28;20280;-88
2022/08/21 03:22:52;;;;;;;3.20;2.40;;;23.40;84.10;;;;;;5075935;28;20529;-88
2022/08/21 03:25:18;;;;;;;4.27;2.80;;;23.40;84.10;;;;;;5058194;28;20252;-89
2022/08/21 03:27:44;;;;;;;5.00;3.20;;;23.40;84.10;;;;;;5058722;28;20214;-89
2022/08/21 03:30:11;;;;;;;6.63;3.20;;;23.30;84.90;;;;;;5057668;28;20255;-88
2022/08/21 03:32:37;;;;;;;6.47;3.37;;;23.10;86.10;;;;;;5057638;28;20172;-88
2022/08/21 03:35:05;;;;;;;4.30;2.50;;;23.00;87.60;;;;;;5074314;28;20231;-88
2022/08/21 03:37:31;;;;;;;3.93;2.70;;;22.90;87.50;;;;;;5058132;28;20182;-89
2022/08/21 03:39:58;;;;;;;5.67;2.60;;;23.00;87.10;;;;;;5075540;28;20547;-89
2022/08/21 03:42:23;;;;;;;3.30;2.30;;;23.00;87.20;;;;;;5059150;28;20561;-89
2022/08/21 03:44:49;;;;;;;5.13;2.50;;;23.00;87.00;;;;;;5058121;28;20218;-89
2022/08/21 03:47:15;;;;;;;4.40;2.47;;;23.00;86.40;;;;;;5075722;28;20237;-89
2022/08/21 03:49:41;;;;;;;4.40;2.53;;;23.10;86.00;;;;;;5058952;28;20435;-89
2022/08/21 03:52:07;;;;;;;3.97;2.47;;;23.20;85.60;;;;;;5076095;28;20174;-88
2022/08/21 03:54:33;;;;;;;2.63;2.40;;;23.20;85.40;;;;;;5057619;28;20166;-89
2022/08/21 03:56:59;;;;;;;3.47;2.60;;;23.20;85.10;;;;;;5058155;28;20173;-90
2022/08/21 03:59:25;;;;;;;7.57;3.10;;;23.10;85.30;;;;;;5075877;28;20200;-90
2022/08/21 04:01:59;;;;;;;4.73;2.40;;;23.10;85.80;;;;;;5075551;28;20267;-91
2022/08/21 04:04:26;;;;;;;3.03;2.00;;;23.00;85.90;;;;;;5058795;28;20178;-90
2022/08/21 04:06:51;;;;;;;2.80;2.13;;;23.10;85.80;;;;;;5057719;28;20576;-90
2022/08/21 04:09:17;;;;;;;6.03;2.20;;;23.10;85.50;;;;;;5057759;28;20242;-90
2022/08/21 04:11:45;;;;;;;4.80;2.30;;;23.10;85.30;;;;;;5058614;28;20173;-90
2022/08/21 04:14:13;;;;;;;3.43;2.23;;;23.10;85.00;;;;;;5058790;28;20260;-90
2022/08/21 04:16:39;;;;;;;5.00;2.73;;;23.10;85.00;;;;;;5058576;28;20170;-90
2022/08/21 04:19:04;;;;;;;6.53;2.13;;;23.10;85.10;;;;;;5056144;28;20188;-90
2022/08/21 04:21:31;;;;;;;4.63;2.90;;;23.00;85.30;;;;;;5055737;28;20171;-90
2022/08/21 04:23:59;;;;;;;5.27;3.10;;;23.00;85.50;;;;;;5055418;28;20188;-91
2022/08/21 04:26:26;;;;;;;5.07;2.50;;;23.00;85.70;;;;;;5056007;28;20588;-91
2022/08/21 04:28:57;;;;;;;5.43;2.90;;;22.90;86.00;;;;;;5054930;28;20292;-90
2022/08/21 04:31:24;;;;;;;5.03;2.70;;;22.80;86.60;;;;;;5055188;28;20174;-91
2022/08/21 04:33:50;;;;;;;3.37;2.40;;;22.80;87.20;;;;;;5056783;28;20182;-90
2022/08/21 04:36:17;;;;;;;5.17;2.10;;;22.80;86.80;;;;;;5075242;28;20167;-90
2022/08/21 04:38:42;;;;;;;5.67;3.00;;;22.90;86.40;;;;;;5056479;28;20178;-90
2022/08/21 04:41:08;;;;;;;5.67;2.97;;;22.90;86.00;;;;;;5056034;28;20174;-90
2022/08/21 04:43:35;;;;;;;2.80;2.10;;;22.90;86.60;;;;;;5056385;28;20237;-91
2022/08/21 04:46:00;;;;;;;5.27;2.40;;;22.80;86.40;;;;;;5054399;28;20206;-91
2022/08/21 04:48:27;;;;;;;5.00;2.80;;;22.90;86.10;;;;;;5054810;28;20216;-91
2022/08/21 04:51:11;;;;;;;2.90;2.40;;;22.90;85.80;;;;;;5054840;28;20170;-91
2022/08/21 04:54:00;;;;;;;2.93;2.40;;;22.90;85.40;;;;;;5055418;28;20173;-90
2022/08/21 04:56:36;;;;;;;3.70;2.20;;;23.00;85.20;;;;;;5056232;28;20272;-90
2022/08/21 04:59:06;;;;;;;2.20;2.00;;;23.00;84.90;;;;;;5055715;28;20791;-90
2022/08/21 05:01:37;;;;;;;4.97;2.43;;;23.00;84.70;;;;;;5056026;28;20434;-89
2022/08/21 05:04:05;;;;;;;3.33;2.20;;;23.10;84.70;;;;;;5056265;28;20274;-89
2022/08/21 05:06:36;;;;;;;2.63;2.20;;;23.00;84.50;;;;;;5073475;28;20182;-89
2022/08/21 05:09:03;;;;;;;4.27;2.63;;;23.00;84.30;;;;;;5056673;28;20213;-89
2022/08/21 05:11:31;;;;;;;4.13;2.47;;;23.10;84.50;;;;;;5056473;28;20183;-89
2022/08/21 05:13:57;;;;;;;5.43;2.60;;;23.10;84.50;;;;;;5055947;28;20175;-89
2022/08/21 05:16:23;;;;;;;4.63;2.93;;;23.10;85.20;;;;;;5056637;28;20482;-89
2022/08/21 05:18:49;;;;;;;5.93;3.03;;;23.10;85.60;;;;;;5056245;28;20189;-89
2022/08/21 05:21:15;;;;;;;5.33;3.20;;;23.20;85.00;;;;;;5060387;28;20174;-89
2022/08/21 05:23:40;;;;;;;4.10;2.70;;;23.20;84.80;;;;;;5060254;28;20223;-88
2022/08/21 05:26:06;;;;;;;5.77;2.90;;;23.20;84.70;;;;;;5058994;28;20247;-89
2022/08/21 05:28:32;;;;;;;5.23;3.10;;;23.30;83.50;;;;;;5060005;28;20318;-88
2022/08/21 05:30:58;;;;;;;4.90;2.70;;;23.40;84.20;;;;;;5058836;28;20172;-88
2022/08/21 05:33:24;;;;;;;2.67;2.20;;;23.40;82.20;;;;;;5059927;28;20180;-89
2022/08/21 05:35:55;;;;;;;3.23;2.40;;;23.50;82.10;;;;;;5060005;28;20593;-88
2022/08/21 05:38:27;;;;;;;5.43;2.60;;;23.60;81.80;;;;;;5059671;28;20169;-88
2022/08/21 05:40:53;;;;;;;2.93;2.10;;;23.70;81.10;;;;;;5058678;28;20413;-88
2022/08/21 05:43:19;;;;;;;2.40;2.13;;;23.80;80.00;;;;;;5058493;28;20459;-88
2022/08/21 05:45:45;;;;;;;3.40;2.30;;;23.90;79.70;;;;;;5058201;28;20230;-88
2022/08/21 05:48:23;;;;;;;3.67;2.53;;;24.00;79.90;;;;;;5056278;28;20203;-88
2022/08/21 05:50:51;;;;;;;3.50;2.20;;;24.10;79.50;;;;;;5058495;28;20441;-88
2022/08/21 05:53:21;;;;;;;4.30;2.30;;;24.30;77.00;;;;;;5057899;28;20183;-88
2022/08/21 05:55:47;;;;;;;2.83;2.27;;;24.40;77.80;;;;;;5057965;28;20540;-88
2022/08/21 05:58:15;;;;;;;2.30;1.97;;;24.50;75.70;;;;;;5059278;28;20636;-88
2022/08/21 06:00:42;;;;;;;2.20;2.00;;;24.60;73.30;;;;;;5076308;28;20167;-88
2022/08/21 06:03:25;;;;;;;2.40;1.83;;;24.80;71.50;;;;;;5059256;28;20179;-89
2022/08/21 06:05:52;;;;;;;3.83;2.03;;;24.90;70.20;;;;;;5058642;28;20202;-88
2022/08/21 06:08:19;;;;;;;2.90;2.30;;;25.10;68.80;;;;;;5058353;28;20215;-89
2022/08/21 06:10:47;;;;;;;2.30;1.90;;;25.20;67.50;;;;;;5058961;28;20532;-88
2022/08/21 06:13:13;;;;;;;2.00;1.80;;;25.40;66.70;;;;;;5074636;28;20175;-88
2022/08/21 06:15:39;;;;;;;1.93;1.80;;;25.50;65.50;;;;;;5058338;28;20575;-88
2022/08/21 06:18:05;;;;;;;2.33;1.80;;;25.70;64.30;;;;;;5057757;28;20450;-88
2022/08/21 06:20:32;;;;;;;2.20;1.70;;;25.80;63.70;;;;;;5058267;28;20186;-88
2022/08/21 06:22:57;;;;;;;2.00;1.77;;;25.90;62.80;;;;;;5058145;28;20273;-89
2022/08/21 06:25:24;;;;;;;4.97;2.10;;;26.10;62.00;;;;;;5057788;28;20474;-89
2022/08/21 06:27:51;;;;;;;2.43;2.00;;;26.20;60.80;;;;;;5058444;28;20615;-89
2022/08/21 06:30:17;;;;;;;2.57;1.80;;;26.30;60.60;;;;;;5058173;28;20251;-88
2022/08/21 06:32:43;;;;;;;3.03;2.10;;;26.60;59.60;;;;;;5057442;28;20666;-88
2022/08/21 06:35:10;;;;;;;2.50;1.80;;;27.00;59.00;;;;;;5056756;28;20186;-88
2022/08/21 06:37:36;;;;;;;2.07;1.87;;;27.40;58.00;;;;;;5057511;28;20207;-88
2022/08/21 06:40:05;;;;;;;1.90;1.80;;;27.90;57.10;;;;;;5058125;28;20354;-88
2022/08/21 06:42:31;;;;;;;3.70;2.10;;;28.30;56.10;;;;;;5058389;28;20242;-91
2022/08/21 06:44:57;;;;;;;1.90;1.80;;;28.80;55.10;;;;;;5058140;28;20188;-89
2022/08/21 06:47:23;;;;;;;2.33;2.00;;;29.10;54.20;;;;;;5058220;28;20289;-89
2022/08/21 06:49:49;;;;;;;3.63;2.17;;;29.50;53.70;;;;;;5058582;28;20546;-89
2022/08/21 06:52:15;;;;;;;3.17;1.90;;;29.80;53.00;;;;;;5058892;28;20172;-89
2022/08/21 06:54:41;;;;;;;3.17;2.00;;;30.10;52.30;;;;;;5075053;28;20218;-89
2022/08/21 06:57:07;;;;;;;2.13;1.93;;;30.50;51.70;;;;;;5058918;28;20187;-89
2022/08/21 06:59:33;;;;;;;2.47;2.10;;;30.80;51.20;;;;;;5057642;28;20176;-89
2022/08/21 07:01:59;;;;;;;2.80;2.13;;;31.10;50.80;;;;;;5057727;28;20198;-89
2022/08/21 07:04:25;;;;;;;4.60;2.47;;;31.30;50.20;;;;;;5057956;28;20530;-89
2022/08/21 07:06:51;;;;;;;2.87;2.37;;;31.60;49.80;;;;;;5056455;28;20241;-89
2022/08/21 07:09:20;;;;;;;3.70;2.20;;;31.90;49.50;;;;;;5074447;28;20459;-89
2022/08/21 07:11:50;;;;;;;3.73;2.13;;;32.10;49.10;;;;;;5063055;28;20185;-89
2022/08/21 07:14:16;;;;;;;2.37;2.00;;;32.30;49.00;;;;;;5058344;28;20171;-89
2022/08/21 07:16:42;;;;;;;2.93;2.07;;;32.50;48.50;;;;;;5056911;28;20171;-89
2022/08/21 07:19:07;;;;;;;2.37;2.03;;;32.80;48.00;;;;;;5056336;28;20565;-88
2022/08/21 07:21:33;;;;;;;2.88;2.20;;;33.00;47.90;;;;;;5055823;28;20599;-89
2022/08/21 07:23:59;;;;;;;2.83;2.20;;;33.00;47.80;;;;;;5057400;28;20644;-88
2022/08/21 07:26:25;;;;;;;2.53;2.00;;;33.20;47.40;;;;;;5056106;28;20282;-89
2022/08/21 07:28:52;;;;;;;2.55;2.10;;;33.40;47.30;;;;;;5056086;28;20204;-88
2022/08/21 07:31:21;;;;;;;2.63;2.25;;;33.50;47.20;;;;;;5072990;28;20168;-88
2022/08/21 07:33:47;;;;;;;3.42;2.20;;;33.60;46.90;;;;;;5056057;28;20167;-89
2022/08/21 07:36:13;;;;;;;5.28;2.47;;;33.90;46.70;;;;;;5055105;28;20167;-88
2022/08/21 07:38:40;;;;;;;3.70;2.45;;;33.90;46.50;;;;;;5054869;28;20171;-89
2022/08/21 07:41:18;;;;;;;4.45;2.42;;;33.90;46.30;;;;;;5054183;28;20179;-88
2022/08/21 07:43:45;;;;;;;5.03;2.58;;;34.10;46.10;;;;;;5054484;28;20180;-88
2022/08/21 07:46:11;;;;;;;5.40;2.70;;;34.50;45.80;;;;;;5053563;28;20171;-88
2022/08/21 07:48:37;;;;;;;3.72;2.47;;;34.60;45.60;;;;;;5052746;28;20298;-88
2022/08/21 07:51:08;;;;;;;3.90;2.53;;;34.70;45.40;;;;;;5071734;28;20163;-88
2022/08/21 07:53:35;;;;;;;3.83;2.30;;;34.90;45.20;;;;;;5054814;28;20172;-88
2022/08/21 07:56:01;;;;;;;3.33;2.45;;;35.10;45.00;;;;;;5055507;28;20321;-88
2022/08/21 07:58:27;;;;;;;4.65;2.90;;;35.30;44.70;;;;;;5055947;28;20176;-90
2022/08/21 08:00:53;;;;;;;4.07;2.92;;;35.50;44.60;;;;;;5054698;28;20185;-91
2022/08/21 08:03:19;;;;;;;4.18;2.58;;;35.60;44.40;;;;;;5055131;28;20175;-91
2022/08/21 08:05:45;;;;;;;4.03;2.97;;;35.60;44.20;;;;;;5054272;28;20368;-91
2022/08/21 08:08:10;;;;;;;4.28;2.60;;;35.80;44.10;;;;;;5054596;28;20473;-91
2022/08/21 08:10:39;;;;;;;4.70;2.60;;;35.60;44.00;;;;;;5054304;28;20182;-92
2022/08/21 08:13:05;;;;;;;7.25;2.90;;;35.30;44.20;;;;;;5052464;28;20175;-91
2022/08/21 08:15:31;;;;;;;4.10;2.70;;;35.40;44.20;;;;;;5053277;28;20167;-91
2022/08/21 08:17:57;;;;;;;3.90;2.65;;;35.40;44.10;;;;;;5053184;28;20329;-91
2022/08/21 08:20:26;;;;;;;4.00;2.65;;;35.40;44.10;;;;;;5053786;28;20550;-92
2022/08/21 08:22:52;;;;;;;4.68;2.70;;;35.40;44.00;;;;;;5052614;28;20171;-92
2022/08/21 08:25:19;;;;;;;3.92;2.75;;;35.50;44.40;;;;;;5053399;28;20172;-91
2022/08/21 08:27:45;;;;;;;4.38;2.70;;;35.80;43.70;;;;;;5052934;28;20211;-91
2022/08/21 08:30:14;;;;;;;4.65;2.83;;;36.00;43.50;;;;;;5054377;28;20168;-89
2022/08/21 08:32:41;;;;;;;4.18;2.90;;;36.20;43.50;;;;;;5053911;28;20163;-90
2022/08/21 08:35:08;;;;;;;5.45;2.70;;;36.20;43.00;;;;;;5071459;28;20262;-89
2022/08/21 08:37:37;;;;;;;3.63;2.60;;;36.20;43.10;;;;;;5053349;28;20182;-89
2022/08/21 08:40:04;;;;;;;5.32;2.80;;;36.10;43.10;;;;;;5071319;28;20274;-89
2022/08/21 08:42:33;;;;;;;4.38;2.60;;;36.20;43.00;;;;;;5051553;28;20640;-89
2022/08/21 08:45:04;;;;;;;6.97;3.05;;;36.50;42.90;;;;;;5054085;28;20228;-89
2022/08/21 08:47:32;;;;;;;4.25;2.90;;;36.70;42.70;;;;;;5070628;28;20195;-89
2022/08/21 08:50:23;;;;;;;5.38;2.78;;;36.50;42.70;;;;;;5050728;28;20168;-89
2022/08/21 08:52:58;;;;;;;6.00;2.92;;;36.50;42.70;;;;;;5052458;28;20175;-89
2022/08/21 08:55:33;;;;;;;5.05;2.67;;;36.70;42.60;;;;;;5054572;28;20682;-89
2022/08/21 08:57:59;;;;;;;5.43;2.83;;;36.70;42.40;;;;;;5057490;28;20190;-89
2022/08/21 09:00:25;;;;;;;4.75;3.00;;;36.80;42.30;;;;;;5056960;28;20553;-89
2022/08/21 09:02:56;;;;;;;4.03;2.67;;;36.90;42.20;;;;;;5073623;28;20171;-89
2022/08/21 09:05:38;;;;;;;4.90;3.00;;;36.90;42.10;;;;;;5026626;28;1203527;-89
2022/08/21 09:08:48;;;;;;;4.93;2.60;;;37.00;42.10;;;;;;5047646;28;20625;-89
2022/08/21 09:11:32;;;;;;;5.65;3.03;;;36.80;42.00;;;;;;4958652;28;20270;-89
2022/08/21 09:14:16;;;;;;;4.25;2.40;;;37.10;41.80;;;;;;4975178;28;20584;-89
2022/08/21 09:16:59;;;;;;;3.35;2.97;;;37.30;41.80;;;;;;5034560;28;20192;-89
2022/08/21 09:19:38;;;;;;;4.45;2.88;;;37.30;41.50;;;;;;5057816;28;20171;-89
2022/08/21 09:22:32;;;;;;;4.03;2.60;;;36.80;41.70;;;;;;5077006;28;20163;-87
2022/08/21 09:25:14;;;;;;;7.57;3.10;;;37.00;41.80;;;;;;5055754;28;20266;-86
2022/08/21 09:27:40;;;;;;;6.53;3.10;;;37.00;41.80;;;;;;5073207;28;20577;-86
2022/08/21 09:30:09;;;;;;;8.45;3.15;;;37.20;41.80;;;;;;5055183;28;20187;-86
2022/08/21 09:32:37;;;;;;;6.25;3.08;;;36.90;41.70;;;;;;5056586;28;20160;-87
2022/08/21 09:35:24;;;;;;;8.77;2.90;;;36.90;41.80;;;;;;5073692;28;20239;-86
2022/08/21 09:37:55;;;;;;;8.00;3.03;;;36.60;41.80;;;;;;5056041;28;20180;-86
2022/08/21 09:40:41;;;;;;;7.03;2.70;;;36.40;42.00;;;;;;5072965;28;20392;-86
2022/08/21 09:43:18;;;;;;;10.77;3.25;;;35.50;42.20;;;;;;5073199;28;20258;-86
2022/08/21 09:45:46;;;;;;;10.27;3.10;;;34.80;43.00;;;;;;5056480;28;20207;-87
2022/08/21 09:48:17;;;;;;;8.85;3.10;;;34.10;43.60;;;;;;5056979;28;20199;-87
2022/08/21 09:50:44;;;;;;;4.15;2.80;;;34.30;43.60;;;;;;5055532;28;20243;-86
2022/08/21 09:53:26;;;;;;;4.55;2.40;;;34.30;43.70;;;;;;5074903;28;20168;-86
2022/08/21 09:58:44;;;;;;;7.85;2.70;;;34.10;43.80;;;;;;5070850;28;20238;-87
2022/08/21 10:01:20;;;;;;;6.20;2.55;;;34.30;43.80;;;;;;5071175;28;20167;-87
2022/08/21 10:03:46;;;;;;;6.47;2.50;;;34.60;43.40;;;;;;5054222;28;20278;-86
2022/08/21 10:06:26;;;;;;;2.83;2.50;;;34.30;43.20;;;;;;5051344;28;20286;-87
2022/08/21 10:09:14;;;;;;;4.30;2.58;;;33.70;43.50;;;;;;5051887;28;20207;-86
2022/08/21 10:11:58;;;;;;;6.50;2.72;;;33.10;44.00;;;;;;5051691;28;20182;-86
2022/08/21 10:14:36;;;;;;;4.47;2.33;;;32.50;44.60;;;;;;5069749;28;20545;-86
2022/08/21 10:17:02;;;;;;;5.53;2.53;;;32.00;45.00;;;;;;5051535;28;20187;-86
2022/08/21 10:19:38;;;;;;;6.07;2.65;;;31.70;45.50;;;;;;5052369;28;20190;-86
2022/08/21 10:22:13;;;;;;;5.22;2.85;;;31.30;45.90;;;;;;5053586;28;20257;-86
2022/08/21 10:24:52;;;;;;;6.80;2.50;;;31.00;46.20;;;;;;5054127;28;20259;-86
2022/08/21 10:28:06;;;;;;;6.15;2.40;;;30.70;46.40;;;;;;5054752;28;20210;-86
2022/08/21 10:30:37;;;;;;;7.32;2.50;;;30.60;46.70;;;;;;5049022;28;20176;-87
2022/08/21 10:33:26;;;;;;;4.32;2.58;;;30.40;46.80;;;;;;5054613;28;20183;-86
2022/08/21 10:36:11;;;;;;;3.40;2.20;;;30.30;47.00;;;;;;5055954;28;20163;-86
2022/08/21 10:39:10;;;;;;;5.32;2.28;;;30.20;47.20;;;;;;5038570;28;20218;-86
2022/08/21 10:42:00;;;;;;;3.50;2.38;;;30.20;47.30;;;;;;5023388;28;20471;-88
2022/08/21 10:44:47;;;;;;;4.43;2.25;;;30.10;47.40;;;;;;5055565;28;20238;-89
2022/08/21 10:47:18;;;;;;;3.75;2.40;;;30.00;47.40;;;;;;5053994;28;20387;-89
2022/08/21 10:50:09;;;;;;;5.88;2.47;;;29.90;47.60;;;;;;5054022;28;20573;-89
2022/08/21 10:52:50;;;;;;;3.75;2.08;;;29.90;47.70;;;;;;5054529;28;20639;-89
2022/08/21 10:55:19;;;;;;;6.93;2.33;;;29.80;47.80;;;;;;5053122;28;20207;-89
2022/08/21 10:57:57;;;;;;;4.45;2.10;;;29.70;47.90;;;;;;5071562;28;20182;-89
2022/08/21 11:00:33;;;;;;;3.35;1.80;;;29.70;48.00;;;;;;5053548;28;20286;-88
2022/08/21 11:03:08;;;;;;;5.20;2.40;;;29.70;48.10;;;;;;5052931;28;20561;-89
2022/08/21 11:05:41;;;;;;;5.60;2.25;;;29.60;48.10;;;;;;5052999;28;20199;-90
2022/08/21 11:08:26;;;;;;;3.05;2.10;;;29.60;48.20;;;;;;5053574;28;20203;-90
2022/08/21 11:11:08;;;;;;;4.57;1.90;;;29.50;48.30;;;;;;5052708;28;20197;-90
2022/08/21 11:13:55;;;;;;;3.75;2.10;;;29.40;48.30;;;;;;5070963;28;20436;-90
2022/08/21 11:16:43;;;;;;;4.63;2.17;;;29.40;48.40;;;;;;5053952;28;20175;-90
2022/08/21 11:19:19;;;;;;;3.88;2.10;;;29.40;48.50;;;;;;5054334;28;20234;-90
2022/08/21 11:22:00;;;;;;;4.25;1.90;;;29.30;48.60;;;;;;5052278;28;20175;-90
2022/08/21 11:24:48;;;;;;;2.80;1.80;;;29.20;48.50;;;;;;5053895;28;20163;-90
2022/08/21 11:27:26;;;;;;;3.70;2.00;;;29.10;48.50;;;;;;5054356;28;20176;-90
2022/08/21 11:29:57;;;;;;;2.83;1.90;;;29.10;48.60;;;;;;5072018;28;20167;-90
2022/08/21 11:32:41;;;;;;;3.40;2.03;;;29.00;48.60;;;;;;5052289;28;20497;-90
2022/08/21 11:35:31;;;;;;;3.30;1.90;;;28.90;48.60;;;;;;5068064;28;20253;-90
2022/08/21 11:37:58;;;;;;;3.35;2.00;;;28.90;48.60;;;;;;5051731;28;20179;-90
2022/08/21 11:40:33;;;;;;;3.90;1.70;;;29.00;48.70;;;;;;5043329;28;20183;-90
2022/08/21 11:43:14;;;;;;;2.35;1.50;;;29.00;48.70;;;;;;5050370;28;20214;-90
2022/08/21 11:45:52;;;;;;;1.65;1.52;;;29.00;48.60;;;;;;5052293;28;20245;-90
2022/08/21 11:48:36;;;;;;;2.28;1.48;;;29.00;48.60;;;;;;5051791;28;20257;-90
2022/08/21 11:51:10;;;;;;;3.85;2.00;;;29.00;48.60;;;;;;5052307;28;20294;-91
2022/08/21 11:53:52;;;;;;;2.83;1.65;;;29.00;48.60;;;;;;5052978;28;20210;-91
2022/08/21 11:56:33;;;;;;;4.45;1.80;;;29.00;48.70;;;;;;5052229;28;20434;-91
2022/08/21 11:59:06;;;;;;;2.63;1.67;;;29.00;48.70;;;;;;5053158;28;20182;-91
2022/08/21 12:01:37;;;;;;;2.97;1.60;;;29.00;48.70;;;;;;5053398;28;20298;-88
2022/08/21 12:04:28;;;;;;;4.57;1.75;;;28.90;48.70;;;;;;5051072;28;20176;-88
2022/08/21 12:06:55;;;;;;;1.90;1.63;;;28.90;48.80;;;;;;5053302;28;20225;-89
2022/08/21 12:09:23;;;;;;;2.33;1.70;;;28.80;48.70;;;;;;5054081;28;20664;-89
2022/08/21 12:12:00;;;;;;;2.22;1.48;;;28.80;48.60;;;;;;5051884;28;20163;-92
2022/08/21 12:14:40;;;;;;;1.95;1.67;;;28.90;48.70;;;;;;5051857;28;20237;-91
2022/08/21 12:17:08;;;;;;;1.80;1.58;;;28.90;48.70;;;;;;5051464;28;20262;-91
2022/08/21 12:19:35;;;;;;;2.80;1.65;;;28.90;48.80;;;;;;5052344;28;20182;-92
2022/08/21 12:22:01;;;;;;;2.63;1.70;;;28.90;48.80;;;;;;5070114;28;20225;-93
2022/08/21 12:24:26;;;;;;;3.17;1.70;;;28.90;48.80;;;;;;5051336;28;20171;-93
2022/08/21 12:26:58;;;;;;;2.33;1.75;;;28.90;48.80;;;;;;5052185;28;20542;-89
2022/08/21 12:29:31;;;;;;;2.75;1.70;;;28.90;48.90;;;;;;5069674;28;20200;-89
2022/08/21 12:32:00;;;;;;;4.32;1.70;;;28.90;48.90;;;;;;5049646;28;20198;-89
2022/08/21 12:34:53;;;;;;;2.53;1.50;;;29.00;49.00;;;;;;5067941;28;20202;-89
2022/08/21 12:37:35;;;;;;;3.17;1.60;;;28.90;48.90;;;;;;5051650;28;20420;-90
2022/08/21 12:40:09;;;;;;;2.67;1.73;;;28.90;49.00;;;;;;5051207;28;20234;-89
2022/08/21 12:42:46;;;;;;;2.92;1.73;;;28.90;49.00;;;;;;5051822;28;20468;-89
2022/08/21 12:45:40;;;;;;;2.75;1.67;;;28.90;49.00;;;;;;5067919;28;20262;-89
2022/08/21 12:48:23;;;;;;;2.05;1.50;;;28.90;49.10;;;;;;5046256;28;20609;-88
2022/08/21 12:50:56;;;;;;;2.55;1.70;;;28.80;49.10;;;;;;5046562;28;20186;-88
2022/08/21 12:53:44;;;;;;;4.37;1.80;;;28.80;49.20;;;;;;5065537;28;20152;-88
2022/08/21 12:56:12;;;;;;;2.88;1.67;;;28.70;49.10;;;;;;5064790;28;20164;-90
2022/08/21 12:58:44;;;;;;;1.67;1.47;;;28.70;49.30;;;;;;5048905;28;20859;-89
2022/08/21 13:01:34;;;;;;;2.08;1.50;;;28.70;49.30;;;;;;5049146;28;20740;-88
2022/08/21 13:04:07;;;;;;;3.00;1.40;;;28.70;49.40;;;;;;5051855;28;20176;-89
2022/08/21 13:06:43;;;;;;;2.05;1.70;;;28.70;49.50;;;;;;5051895;28;20198;-89